Churchill Airport
CYYQ : now visible

Airfield :











YOU CAN JOIN US ON...

 
LOGIN :

Register | Disclaimer

   EN    FR    IT 

 









Legend :    VFR   Marginal VFR   IFR   Intensive IFR   Very Intensive IFR
Visi :
Ceiling :
>= 8 km
>= 3000ft
5 to 8 km
1000 to 3000 ft
1500m to 5 km
500 to 1000 ft
800 to 1500m
200 to 500 ft
< 800m
< 200 ft
Symbols :   Thunderstorms  Fog  Heavy snow  Heavy precipitations  Wind > 20 kt






- Airport Elevation : 94 ft
- IATA code : YYQ


CYYQ - Churchill

CURRENT METAR :
  • 261500Z 08010KT 15SM FEW008 SCT120 BKN250 01/M02 A2984 RMK SC2AC2CI3 SLP110

EXPIRED METARs :
  • 261400Z 07008KT 15SM SCT008 BKN120 BKN250 01/M02 A2984 RMK SC4AC2CI1 SLP110
  • 261309Z 07010KT 15SM BKN006 OVC120 M01/M02 A2985 RMK SC5AC2 SLP111
  • 261235Z 11010KT 15SM BKN004 OVC120 M01/M02 A2985 RMK SC7AC1 SLP111
  • 261200Z 10008KT 15SM OVC005 M01/M02 A2985 RMK ST8 SLP112

TAF TAF CYYQ
Valid from the 26 at 12:00 until the 27 at 12:00 UTC


261140Z 2612/2712 12008KT 5SM BR OVC005
TEMPO 2612/2615 P6SM NSW SCT005 BKN250
FM261500 07010KT P6SM SCT010
TEMPO 2615/2618 BKN010
FM262100 04015KT P6SM SCT030
FM270300 03012KT P6SM BKN050 BKN250
FM270800 02015KT P6SM FEW050 BKN250
PROB30 2710/2712 4SM BR BKN005 RMK NXT FCST BY 261800Z
CZWG FIR / North America



MET'MAP, your aeronautical weather chart ! - Copyright ORBIFLY December 2007 - Disclaimer

ORBIFLY MET'MAP TEAM :

Programming & Development : Alexandra Zaïnal
Original concept : Baudouin d'Aumeries
Technical & hardware support : Manuel Goepfert
Assistance : Marc-Olivier Méhu




SOURCES & CREDITS :

   NOAA       Earth
Advisory